»·PEaware :: WAT3775 KLAX-KTUS

WAT3775 :: KLAX-KTUS

FLIGHT INFORMATION

Flight Status: Arrived
Operator:
Walker Air Transport
More flights by this operator :: More flights under this callsign
Pilot: Jamie M. (26320)
Aircraft: BOEING 737-800
(B738)
More flights by this aircraft type
Origin: KLAX Los Angeles Intl
United States
Destination: KTUS Tucson Intl
United States
More flights between these airports :: More routes between these airports
Route: DOTSS2 CNERY BLH J50 GBN DINGO5
File this flight plan on PilotEdge
Remarks:
Altitude:
(Current/Filed)
35,000ft
Speed:
(Current/Filed)
458kts
Departed: 17-Sep-23 10:31 AM
Arrived: 17-Sep-23 11:36 AM
Distance/Time
Traveled:
392nm/1:05
Distance/Time
To Go:
Arrived

Flight Plot

Page will automatically refresh every two minutes.

Flight plan parsing failed; only flown route is shown


Map Options




Map Legend


Flown Route
Filed Route
Departure Airport
Arrival Airport
Navaid (VOR, NDB)
Fix

Horizontal Profiles

Position Reports

Time Latitude Longitude Heading Altitude Ground
Speed
17-Sep-23 10:11 33.933309 -118.400578 172 124ft 0kts
17-Sep-23 10:12 33.933309 -118.400578 172 124ft 0kts
17-Sep-23 10:13 33.933309 -118.400578 172 124ft 0kts
17-Sep-23 10:14 33.933309 -118.400578 172 124ft 0kts
17-Sep-23 10:15 33.933309 -118.400578 172 124ft 0kts
17-Sep-23 10:16 33.933309 -118.400578 172 124ft 0kts
17-Sep-23 10:17 33.933309 -118.400578 172 124ft 0kts
17-Sep-23 10:18 33.933590 -118.400646 160 121ft 2kts
17-Sep-23 10:19 33.934070 -118.400976 142 122ft 0kts
17-Sep-23 10:20 33.934070 -118.400976 142 121ft 0kts
17-Sep-23 10:21 33.934070 -118.400976 142 121ft 0kts
17-Sep-23 10:22 33.934070 -118.400976 142 121ft 0kts
17-Sep-23 10:23 33.934447 -118.399220 82 124ft 14kts
17-Sep-23 10:24 33.934997 -118.393878 82 124ft 23kts
17-Sep-23 10:25 33.935638 -118.387566 83 123ft 17kts
17-Sep-23 10:26 33.936160 -118.383063 57 123ft 0kts
17-Sep-23 10:27 33.936160 -118.383063 57 123ft 0kts
17-Sep-23 10:28 33.936160 -118.383063 57 123ft 0kts
17-Sep-23 10:29 33.937145 -118.382905 329 122ft 7kts
17-Sep-23 10:30 33.936349 -118.392618 262 121ft 127kts
17-Sep-23 10:31 33.930145 -118.450475 262 2645ft 194kts
17-Sep-23 10:32 33.899862 -118.503853 230 3767ft 263kts
17-Sep-23 10:33 33.843692 -118.559106 178 6992ft 272kts
17-Sep-23 10:34 33.768396 -118.540210 167 10208ft 283kts
17-Sep-23 10:35 33.689828 -118.494590 120 11247ft 363kts
17-Sep-23 10:36 33.655065 -118.378525 111 11991ft 370kts
17-Sep-23 10:37 33.644171 -118.256136 91 11995ft 376kts
17-Sep-23 10:38 33.644626 -118.143232 91 14051ft 386kts
17-Sep-23 10:39 33.644555 -118.019587 92 15942ft 402kts
17-Sep-23 10:40 33.644326 -117.882782 92 17913ft 418kts
17-Sep-23 10:41 33.632471 -117.743020 110 19664ft 424kts
17-Sep-23 10:42 33.597478 -117.605979 110 21324ft 437kts
17-Sep-23 10:43 33.562306 -117.464044 110 22900ft 450kts
17-Sep-23 10:44 33.526107 -117.318506 110 24297ft 460kts
17-Sep-23 10:45 33.502632 -117.166478 94 25523ft 477kts
17-Sep-23 10:46 33.501688 -117.005861 94 26688ft 486kts
17-Sep-23 10:47 33.499348 -116.842602 94 27745ft 495kts
17-Sep-23 10:48 33.496633 -116.676298 94 28673ft 503kts
17-Sep-23 10:49 33.493722 -116.508791 94 30088ft 500kts
17-Sep-23 10:50 33.490844 -116.341457 94 31018ft 507kts
17-Sep-23 10:51 33.488339 -116.172007 94 31906ft 512kts
17-Sep-23 10:52 33.494910 -116.000860 76 32735ft 524kts
17-Sep-23 10:53 33.543479 -115.837834 70 33621ft 529kts
17-Sep-23 10:54 33.592141 -115.671216 71 34604ft 528kts
17-Sep-23 10:55 33.618882 -115.525260 93 34931ft 527kts
17-Sep-23 10:56 33.612805 -115.350881 96 34928ft 522kts
17-Sep-23 10:57 33.607692 -115.176905 95 34916ft 520kts
17-Sep-23 10:58 33.603074 -115.004275 95 34915ft 519kts
17-Sep-23 10:59 33.598074 -114.830723 95 34913ft 522kts
17-Sep-23 11:00 33.587811 -114.656990 100 34917ft 523kts
17-Sep-23 11:01 33.571128 -114.483058 99 34910ft 526kts
17-Sep-23 11:02 33.555256 -114.308830 99 34904ft 526kts
17-Sep-23 11:03 33.539185 -114.134975 99 34922ft 526kts
17-Sep-23 11:04 33.522818 -113.960816 99 34926ft 526kts
17-Sep-23 11:05 33.506281 -113.786535 99 34937ft 525kts
17-Sep-23 11:06 33.489706 -113.613026 99 34937ft 525kts
17-Sep-23 11:07 33.472848 -113.439121 99 34942ft 525kts
17-Sep-23 11:08 33.418004 -113.284754 139 34931ft 496kts
17-Sep-23 11:09 33.325645 -113.164034 138 34017ft 506kts
17-Sep-23 11:10 33.260231 -113.077138 136 31860ft 506kts
17-Sep-23 11:11 33.179121 -112.969031 135 29628ft 490kts
17-Sep-23 11:12 33.089935 -112.850804 134 27331ft 468kts
17-Sep-23 11:13 33.004375 -112.737772 134 25234ft 449kts
17-Sep-23 11:14 32.932847 -112.619550 115 23444ft 441kts
17-Sep-23 11:15 32.884709 -112.489205 115 21993ft 426kts
17-Sep-23 11:16 32.835905 -112.361902 115 20681ft 419kts
17-Sep-23 11:17 32.787696 -112.237441 115 19406ft 410kts
17-Sep-23 11:18 32.740417 -112.115757 115 18120ft 401kts
17-Sep-23 11:19 32.694460 -111.997876 115 16858ft 386kts
17-Sep-23 11:20 32.649756 -111.883601 116 15564ft 378kts
17-Sep-23 11:21 32.605787 -111.771564 116 14377ft 370kts
17-Sep-23 11:22 32.563020 -111.662890 117 13203ft 351kts
17-Sep-23 11:23 32.512842 -111.570806 130 12189ft 319kts
17-Sep-23 11:24 32.465085 -111.490145 123 11855ft 277kts
17-Sep-23 11:25 32.428654 -111.413795 124 10604ft 262kts
17-Sep-23 11:26 32.392693 -111.340118 124 8942ft 255kts
17-Sep-23 11:27 32.357018 -111.267557 122 7599ft 256kts
17-Sep-23 11:28 32.320999 -111.194461 122 6470ft 258kts
17-Sep-23 11:29 32.278910 -111.130016 136 5897ft 227kts
17-Sep-23 11:30 32.235326 -111.078575 136 5483ft 210kts
17-Sep-23 11:31 32.196604 -111.032839 138 4459ft 181kts
17-Sep-23 11:32 32.166624 -110.998346 138 3804ft 130kts
17-Sep-23 11:33 32.139656 -110.966750 139 3102ft 134kts
17-Sep-23 11:34 32.117311 -110.940786 134 2596ft 107kts
17-Sep-23 11:35 32.111596 -110.932158 27 2621ft 13kts
17-Sep-23 11:36 32.113909 -110.933158 41 2615ft 11kts
17-Sep-23 11:37 32.114913 -110.931965 44 2618ft 0kts
17-Sep-23 11:38 32.114915 -110.931963 44 2618ft 0kts
17-Sep-23 11:39 32.114957 -110.931762 111 2618ft 3kts
17-Sep-23 11:40 32.114502 -110.931163 138 2620ft 0kts
17-Sep-23 11:41 32.114502 -110.931163 138 2620ft 0kts
17-Sep-23 11:42 32.114502 -110.931163 138 2620ft 0kts
17-Sep-23 11:43 32.114502 -110.931163 138 2620ft 0kts
17-Sep-23 11:44 32.114502 -110.931163 138 2620ft 0kts

Navigation Log

Ident Type
Flight plan parsing failed, navigation log unavailable